Time;durP1;ratioP1;P1;durP2;ratioP2;P2;SDS_P1;SDS_P2;PMS_P1;PMS_P2;Temp;Humidity;BMP_temperature;BMP_pressure;BME280_temperature;BME280_humidity;BME280_pressure;Samples;Min_cycle;Max_cycle;Signal;HPM_P1;HPM_P2
2021/12/02 00:01:36;;;;;;;1.30;1.20;;;15.90;55.20;;;;;;4951236;28;20498;-83
2021/12/02 00:04:05;;;;;;;2.67;1.53;;;15.90;55.10;;;;;;4953559;28;20538;-82
2021/12/02 00:06:33;;;;;;;1.47;1.30;;;15.90;55.20;;;;;;4954076;28;20514;-83
2021/12/02 00:09:01;;;;;;;3.07;1.60;;;15.90;55.20;;;;;;4956342;29;20462;-85
2021/12/02 00:11:29;;;;;;;1.43;1.30;;;15.90;55.10;;;;;;4953523;29;20490;-83
2021/12/02 00:14:02;;;;;;;2.17;1.33;;;15.90;55.10;;;;;;4953515;28;20553;-84
2021/12/02 00:16:34;;;;;;;3.43;1.33;;;15.90;54.90;;;;;;4950005;29;20502;-83
2021/12/02 00:21:50;;;;;;;7.50;1.30;;;15.90;55.00;;;;;;4952350;28;20579;-82
2021/12/02 00:24:19;;;;;;;2.47;1.37;;;15.90;55.10;;;;;;4950592;28;20522;-82
2021/12/02 00:26:48;;;;;;;5.70;1.50;;;15.80;55.00;;;;;;4951707;29;20466;-82
2021/12/02 00:29:19;;;;;;;2.40;1.37;;;15.90;55.00;;;;;;4950313;29;20531;-82
2021/12/02 00:31:48;;;;;;;3.33;1.70;;;15.90;55.10;;;;;;4955724;28;20443;-81
2021/12/02 00:34:16;;;;;;;1.70;1.30;;;15.80;55.00;;;;;;4950522;29;20550;-82
2021/12/02 00:36:43;;;;;;;2.07;1.20;;;15.80;55.00;;;;;;4950877;28;20495;-81
2021/12/02 00:39:12;;;;;;;2.37;1.37;;;15.80;54.80;;;;;;4953529;29;20554;-82
2021/12/02 00:41:40;;;;;;;4.87;1.63;;;15.80;54.90;;;;;;4953695;29;20482;-83
2021/12/02 00:44:08;;;;;;;2.90;1.30;;;15.80;55.00;;;;;;4954057;29;20547;-82
2021/12/02 00:46:38;;;;;;;2.20;1.30;;;15.80;54.90;;;;;;4955596;28;20534;-82
2021/12/02 00:49:06;;;;;;;3.53;1.40;;;15.70;54.90;;;;;;4950472;29;20491;-82
2021/12/02 00:51:35;;;;;;;1.40;1.30;;;15.70;55.10;;;;;;4948270;29;20491;-82
2021/12/02 00:54:04;;;;;;;1.87;1.23;;;15.70;54.90;;;;;;4953595;28;20475;-83
2021/12/02 00:56:32;;;;;;;2.03;1.50;;;15.70;55.00;;;;;;4948539;28;20490;-83
2021/12/02 00:59:00;;;;;;;1.37;1.10;;;15.70;55.10;;;;;;4954091;29;20535;-82
2021/12/02 01:01:34;;;;;;;3.57;1.40;;;15.70;54.90;;;;;;4955537;29;20447;-82
2021/12/02 01:04:08;;;;;;;4.33;1.50;;;15.70;55.00;;;;;;4945067;29;20945;-82
2021/12/02 01:06:35;;;;;;;4.30;1.40;;;15.70;55.00;;;;;;4952716;28;20460;-82
2021/12/02 01:09:04;;;;;;;3.00;1.13;;;15.70;54.90;;;;;;4952756;28;20467;-82
2021/12/02 01:11:32;;;;;;;1.53;1.03;;;15.70;54.80;;;;;;4950546;29;20474;-82
2021/12/02 01:14:00;;;;;;;4.60;1.20;;;15.60;54.80;;;;;;4957400;28;21057;-82
2021/12/02 01:16:28;;;;;;;3.77;1.30;;;15.60;54.90;;;;;;4951098;28;20510;-82
2021/12/02 01:18:56;;;;;;;2.43;1.00;;;15.60;54.80;;;;;;4955632;28;20495;-82
2021/12/02 01:21:26;;;;;;;3.60;1.50;;;15.60;54.90;;;;;;4954430;29;20485;-82
2021/12/02 01:23:56;;;;;;;3.87;1.33;;;15.60;54.60;;;;;;4951618;28;20474;-82
2021/12/02 01:26:24;;;;;;;1.60;1.30;;;15.60;54.80;;;;;;4958187;28;20483;-82
2021/12/02 01:28:51;;;;;;;1.77;1.30;;;15.60;54.60;;;;;;4957606;28;20466;-83
2021/12/02 01:31:20;;;;;;;2.53;1.27;;;15.50;54.60;;;;;;4959054;29;20555;-82
2021/12/02 01:33:48;;;;;;;2.40;1.37;;;15.50;54.70;;;;;;4954761;28;20471;-82
2021/12/02 01:36:15;;;;;;;3.07;1.40;;;15.50;54.70;;;;;;4955709;29;21075;-82
2021/12/02 01:38:45;;;;;;;3.53;1.47;;;15.50;54.60;;;;;;4956117;28;20458;-82
2021/12/02 01:41:13;;;;;;;2.03;1.43;;;15.50;54.50;;;;;;4957410;29;20443;-82
2021/12/02 01:43:47;;;;;;;1.30;1.20;;;15.50;54.50;;;;;;4952347;28;20495;-82
2021/12/02 01:46:15;;;;;;;1.10;1.00;;;15.50;54.50;;;;;;4953109;28;20506;-83
2021/12/02 01:48:44;;;;;;;3.10;1.60;;;15.50;54.50;;;;;;4952867;28;21003;-84
2021/12/02 01:51:13;;;;;;;1.93;1.67;;;15.50;54.40;;;;;;4954069;28;20474;-83
2021/12/02 01:53:41;;;;;;;3.70;1.60;;;15.40;54.40;;;;;;4953266;28;20531;-83
2021/12/02 01:56:12;;;;;;;2.70;1.07;;;15.40;54.30;;;;;;4957605;28;20997;-83
2021/12/02 01:58:42;;;;;;;3.10;1.40;;;15.40;54.30;;;;;;4957834;28;20479;-83
2021/12/02 02:01:15;;;;;;;2.60;1.47;;;15.40;54.20;;;;;;4946652;29;20551;-83
2021/12/02 02:03:44;;;;;;;3.87;1.20;;;15.40;54.30;;;;;;4951615;28;20502;-82
2021/12/02 02:06:14;;;;;;;1.30;1.20;;;15.40;54.40;;;;;;4948617;29;20471;-83
2021/12/02 02:08:45;;;;;;;2.00;1.30;;;15.40;54.20;;;;;;4947915;28;20484;-82
2021/12/02 02:11:14;;;;;;;1.90;1.33;;;15.30;54.10;;;;;;4958979;28;20455;-82
2021/12/02 02:13:43;;;;;;;3.17;1.63;;;15.30;54.20;;;;;;4956583;28;20494;-83
2021/12/02 02:16:11;;;;;;;2.40;1.23;;;15.30;54.30;;;;;;4955881;28;20443;-83
2021/12/02 02:18:40;;;;;;;1.60;1.50;;;15.30;54.20;;;;;;4953332;28;20458;-83
2021/12/02 02:21:13;;;;;;;3.13;1.40;;;15.30;54.20;;;;;;4958107;28;20490;-83
2021/12/02 02:23:46;;;;;;;1.33;1.20;;;15.20;54.00;;;;;;4952578;28;20482;-82
2021/12/02 02:26:16;;;;;;;3.37;1.60;;;15.20;53.90;;;;;;4951202;28;20498;-80
2021/12/02 02:28:44;;;;;;;2.43;1.17;;;15.20;54.20;;;;;;4951238;29;20487;-83
2021/12/02 02:31:12;;;;;;;1.40;1.20;;;15.20;54.00;;;;;;4948964;28;20458;-80
2021/12/02 02:33:40;;;;;;;1.57;1.33;;;15.20;54.10;;;;;;4951669;28;20475;-80
2021/12/02 02:36:10;;;;;;;1.90;1.10;;;15.20;54.10;;;;;;4953483;28;20475;-82
2021/12/02 02:38:37;;;;;;;1.73;1.60;;;15.20;54.10;;;;;;4956794;28;20455;-82
2021/12/02 02:41:08;;;;;;;2.00;1.10;;;15.10;53.90;;;;;;4960925;28;20478;-83
2021/12/02 02:43:36;;;;;;;2.60;1.23;;;15.10;54.10;;;;;;4958750;28;20456;-81
2021/12/02 02:46:04;;;;;;;1.83;1.73;;;15.10;54.00;;;;;;4954390;28;20506;-81
2021/12/02 02:48:32;;;;;;;3.07;1.20;;;15.10;54.00;;;;;;4954688;28;20463;-80
2021/12/02 02:51:00;;;;;;;1.53;1.33;;;15.20;54.00;;;;;;4957305;28;20427;-82
2021/12/02 02:53:29;;;;;;;4.13;1.43;;;15.20;54.00;;;;;;4950620;29;20455;-82
2021/12/02 02:56:06;;;;;;;4.20;1.40;;;15.10;53.70;;;;;;4950763;29;20464;-83
2021/12/02 02:58:46;;;;;;;1.80;1.70;;;15.10;53.90;;;;;;4951890;28;20459;-82
2021/12/02 03:01:26;;;;;;;2.77;1.30;;;15.10;53.80;;;;;;4948567;28;20462;-82
2021/12/02 03:04:02;;;;;;;3.07;1.43;;;15.10;53.80;;;;;;4948371;29;20475;-82
2021/12/02 03:06:35;;;;;;;1.23;1.13;;;15.10;53.70;;;;;;4954903;29;20523;-82
2021/12/02 03:09:07;;;;;;;2.30;1.33;;;15.00;53.80;;;;;;4950016;29;20518;-82
2021/12/02 03:11:42;;;;;;;2.70;1.40;;;15.00;53.80;;;;;;4949179;28;20462;-82
2021/12/02 03:14:14;;;;;;;1.63;1.30;;;15.00;53.80;;;;;;4944548;28;20518;-82
2021/12/02 03:16:44;;;;;;;1.37;1.10;;;15.00;53.70;;;;;;4946507;28;20472;-82
2021/12/02 03:19:13;;;;;;;1.90;1.30;;;15.00;53.80;;;;;;4950204;29;20443;-82
2021/12/02 03:21:41;;;;;;;3.40;1.70;;;15.00;53.70;;;;;;4949535;29;20452;-82
2021/12/02 03:24:10;;;;;;;2.00;1.53;;;15.00;53.80;;;;;;4959228;28;20478;-82
2021/12/02 03:26:38;;;;;;;2.63;1.40;;;15.00;53.50;;;;;;4956179;28;20503;-81
2021/12/02 03:29:06;;;;;;;2.10;1.50;;;15.00;53.50;;;;;;4947718;28;20487;-82
2021/12/02 03:31:34;;;;;;;1.50;1.20;;;14.90;53.50;;;;;;4950240;29;20496;-82
2021/12/02 03:34:04;;;;;;;1.30;1.20;;;14.90;53.60;;;;;;4953431;28;20538;-82
2021/12/02 03:36:32;;;;;;;2.33;1.50;;;14.90;53.50;;;;;;4949973;28;20452;-82
2021/12/02 03:39:00;;;;;;;1.73;1.20;;;14.90;53.40;;;;;;4953577;28;20462;-82
2021/12/02 03:41:29;;;;;;;2.47;1.50;;;14.90;53.50;;;;;;4953245;28;20479;-82
2021/12/02 03:43:57;;;;;;;1.87;1.70;;;14.90;53.40;;;;;;4946820;28;20480;-82
2021/12/02 03:46:25;;;;;;;7.23;1.50;;;14.90;53.60;;;;;;4943289;29;20470;-82
2021/12/02 03:48:54;;;;;;;2.07;1.20;;;14.90;53.40;;;;;;4948792;29;20427;-82
2021/12/02 03:51:22;;;;;;;2.50;1.37;;;14.90;53.40;;;;;;4945442;29;20437;-82
2021/12/02 03:53:50;;;;;;;4.03;1.40;;;14.90;53.50;;;;;;4947051;28;20486;-82
2021/12/02 03:56:18;;;;;;;3.33;1.30;;;14.90;53.50;;;;;;4956984;28;20435;-82
2021/12/02 03:58:48;;;;;;;1.83;1.30;;;14.80;53.40;;;;;;4957860;28;20450;-82
2021/12/02 04:01:16;;;;;;;1.37;1.13;;;14.90;53.50;;;;;;4957849;29;20505;-82
2021/12/02 04:03:44;;;;;;;2.43;1.87;;;14.80;53.40;;;;;;4957795;28;20461;-81
2021/12/02 04:06:12;;;;;;;2.57;1.43;;;14.90;53.40;;;;;;4957804;28;20509;-82
2021/12/02 04:08:44;;;;;;;1.57;1.47;;;14.90;53.40;;;;;;4958666;29;20455;-82
2021/12/02 04:11:20;;;;;;;3.70;1.20;;;14.90;53.30;;;;;;4958057;28;20451;-82
2021/12/02 04:13:59;;;;;;;2.13;1.47;;;14.80;53.20;;;;;;4957927;28;20446;-81
2021/12/02 04:16:29;;;;;;;1.37;1.20;;;14.80;53.30;;;;;;4957847;29;20427;-81
2021/12/02 04:18:58;;;;;;;1.40;1.13;;;14.80;53.40;;;;;;4957350;29;20471;-82
2021/12/02 04:21:26;;;;;;;2.20;1.47;;;14.80;53.40;;;;;;4957399;28;20447;-82
2021/12/02 04:23:54;;;;;;;1.53;1.20;;;14.80;53.40;;;;;;4957826;28;20498;-82
2021/12/02 04:26:22;;;;;;;2.20;1.30;;;14.80;53.30;;;;;;4956941;28;20483;-82
2021/12/02 04:28:51;;;;;;;2.80;1.43;;;14.70;53.20;;;;;;4956845;29;20644;-81
2021/12/02 04:31:19;;;;;;;2.70;1.30;;;14.80;53.40;;;;;;4958466;28;20486;-81
2021/12/02 04:33:47;;;;;;;1.53;1.40;;;14.80;53.40;;;;;;4958441;28;20463;-81
2021/12/02 04:36:15;;;;;;;2.83;1.20;;;14.70;53.40;;;;;;4957823;29;20434;-82
2021/12/02 04:38:43;;;;;;;5.07;1.10;;;14.70;53.10;;;;;;4958687;29;20442;-81
2021/12/02 04:41:13;;;;;;;2.10;1.83;;;14.70;53.30;;;;;;4957863;28;20832;-81
2021/12/02 04:43:41;;;;;;;2.70;1.27;;;14.70;53.30;;;;;;4957888;28;20483;-81
2021/12/02 04:46:10;;;;;;;3.03;1.40;;;14.70;53.10;;;;;;4957493;28;20874;-82
2021/12/02 04:48:39;;;;;;;1.20;1.10;;;14.70;53.20;;;;;;4960704;28;20454;-82
2021/12/02 04:51:07;;;;;;;1.67;1.23;;;14.70;53.30;;;;;;4961732;28;20473;-82
2021/12/02 04:53:35;;;;;;;1.73;1.33;;;14.70;53.20;;;;;;4961340;28;20534;-81
2021/12/02 04:56:03;;;;;;;1.77;1.53;;;14.80;53.30;;;;;;4961557;29;20475;-82
2021/12/02 04:58:31;;;;;;;3.67;1.57;;;14.70;53.00;;;;;;4961894;28;20478;-82
2021/12/02 05:00:59;;;;;;;2.60;1.40;;;14.70;53.20;;;;;;4959925;28;20538;-82
2021/12/02 05:03:28;;;;;;;1.90;1.60;;;14.70;53.20;;;;;;4960774;28;20978;-82
2021/12/02 05:05:57;;;;;;;1.63;1.33;;;14.70;53.30;;;;;;4961051;28;20454;-82
2021/12/02 05:08:24;;;;;;;1.70;1.30;;;14.60;53.20;;;;;;4959605;29;20482;-82
2021/12/02 05:10:53;;;;;;;1.40;1.30;;;14.60;53.20;;;;;;4960027;28;20462;-82
2021/12/02 05:13:20;;;;;;;2.87;1.70;;;14.60;53.30;;;;;;4960508;28;20509;-81
2021/12/02 05:15:50;;;;;;;1.63;1.53;;;14.60;53.30;;;;;;4960361;28;20463;-82
2021/12/02 05:18:18;;;;;;;4.20;1.30;;;14.60;53.30;;;;;;4960823;29;20427;-82
2021/12/02 05:20:47;;;;;;;1.63;1.30;;;14.60;53.30;;;;;;4960890;29;20450;-82
2021/12/02 05:23:15;;;;;;;3.07;1.50;;;14.60;53.00;;;;;;4960488;28;20535;-82
2021/12/02 05:25:44;;;;;;;3.40;1.43;;;14.60;53.10;;;;;;4960367;28;20442;-82
2021/12/02 05:28:12;;;;;;;3.60;1.13;;;14.60;53.20;;;;;;4960636;28;20514;-82
2021/12/02 05:30:40;;;;;;;1.67;1.37;;;14.60;53.30;;;;;;4960091;28;20498;-81
2021/12/02 05:33:08;;;;;;;2.60;1.33;;;14.60;53.30;;;;;;4958574;28;20579;-81
2021/12/02 05:35:36;;;;;;;1.67;1.50;;;14.60;53.30;;;;;;4960428;29;21037;-82
2021/12/02 05:38:06;;;;;;;2.00;1.40;;;14.60;53.20;;;;;;4960675;28;21009;-82
2021/12/02 05:40:34;;;;;;;1.53;1.33;;;14.60;53.20;;;;;;4960512;28;20482;-82
2021/12/02 05:43:02;;;;;;;1.50;1.30;;;14.70;53.30;;;;;;4960957;28;20494;-83
2021/12/02 05:45:30;;;;;;;1.53;1.30;;;14.70;53.40;;;;;;4960884;28;20492;-83
2021/12/02 05:47:58;;;;;;;1.87;1.20;;;14.70;53.30;;;;;;4961374;28;20474;-82
2021/12/02 05:50:26;;;;;;;1.50;1.40;;;14.70;53.50;;;;;;4960328;28;20489;-83
2021/12/02 05:52:54;;;;;;;4.80;1.40;;;14.80;53.50;;;;;;4960572;28;20487;-82
2021/12/02 05:55:24;;;;;;;1.63;1.30;;;14.80;53.60;;;;;;4960232;28;20534;-82
2021/12/02 05:57:52;;;;;;;1.50;1.30;;;14.80;53.40;;;;;;4960583;28;20459;-82
2021/12/02 06:00:20;;;;;;;1.73;1.50;;;14.80;53.50;;;;;;4960101;28;20502;-82
2021/12/02 06:02:48;;;;;;;2.70;1.10;;;14.80;53.60;;;;;;4960521;28;20497;-82
2021/12/02 06:05:20;;;;;;;2.03;1.30;;;14.80;53.70;;;;;;4960107;28;20466;-82
2021/12/02 06:07:49;;;;;;;1.73;1.50;;;14.80;53.70;;;;;;4959773;28;20475;-82
2021/12/02 06:10:18;;;;;;;2.90;1.57;;;14.90;53.80;;;;;;4960633;29;20470;-82
2021/12/02 06:12:47;;;;;;;2.10;1.30;;;14.80;53.60;;;;;;4961015;28;20981;-82
2021/12/02 06:15:15;;;;;;;1.43;1.20;;;14.90;53.90;;;;;;4959963;28;20479;-82
2021/12/02 06:17:43;;;;;;;4.77;1.50;;;14.90;53.80;;;;;;4959397;28;20475;-82
2021/12/02 06:20:12;;;;;;;2.10;1.47;;;14.90;54.00;;;;;;4959152;29;20475;-82
2021/12/02 06:22:40;;;;;;;1.67;1.33;;;14.90;53.80;;;;;;4958914;28;20553;-82
2021/12/02 06:27:56;;;;;;;1.70;1.50;;;14.90;53.90;;;;;;4959361;29;20557;-82
2021/12/02 06:30:25;;;;;;;1.53;1.30;;;14.90;53.90;;;;;;4959327;28;20877;-82
2021/12/02 06:32:53;;;;;;;1.17;1.00;;;14.90;53.90;;;;;;4959168;28;20534;-82
2021/12/02 06:35:21;;;;;;;1.50;1.40;;;14.90;53.90;;;;;;4958988;29;20446;-82
2021/12/02 06:37:50;;;;;;;1.33;1.10;;;14.90;54.00;;;;;;4959516;28;20439;-83
2021/12/02 06:40:18;;;;;;;1.60;1.50;;;14.90;54.20;;;;;;4954061;28;20464;-82
2021/12/02 06:42:45;;;;;;;2.70;1.73;;;14.90;54.10;;;;;;4956562;29;20526;-83
2021/12/02 06:45:15;;;;;;;1.50;1.40;;;14.90;54.10;;;;;;4958967;29;20454;-82
2021/12/02 06:47:45;;;;;;;2.43;1.53;;;14.90;54.10;;;;;;4959330;29;20545;-82
2021/12/02 06:50:16;;;;;;;2.07;1.37;;;14.90;54.20;;;;;;4958665;29;20510;-82
2021/12/02 06:52:44;;;;;;;1.80;1.50;;;14.90;54.20;;;;;;4958806;28;20491;-82
2021/12/02 06:55:13;;;;;;;1.57;1.47;;;14.90;54.20;;;;;;4958199;29;20467;-83
2021/12/02 06:57:41;;;;;;;3.53;1.70;;;14.90;54.10;;;;;;4958842;28;20546;-83
2021/12/02 07:00:11;;;;;;;2.47;1.50;;;14.90;54.20;;;;;;4958768;28;20435;-82
2021/12/02 07:02:40;;;;;;;1.80;1.43;;;14.90;54.20;;;;;;4958480;28;20527;-82
2021/12/02 07:05:10;;;;;;;2.70;1.53;;;14.90;54.10;;;;;;4959307;28;20467;-82
2021/12/02 07:07:38;;;;;;;1.43;1.20;;;14.90;54.20;;;;;;4958881;29;20546;-82
2021/12/02 07:10:07;;;;;;;2.30;1.23;;;14.90;54.10;;;;;;4958410;28;20478;-82
2021/12/02 07:12:36;;;;;;;5.53;1.47;;;14.90;54.20;;;;;;4958736;28;20550;-83
2021/12/02 07:15:08;;;;;;;2.20;1.53;;;14.90;54.10;;;;;;4958114;29;20459;-82
2021/12/02 07:17:36;;;;;;;1.57;1.47;;;14.80;54.80;;;;;;4958643;29;20427;-83
2021/12/02 07:20:07;;;;;;;5.00;1.50;;;14.80;54.30;;;;;;4957984;28;20534;-82
2021/12/02 07:22:35;;;;;;;1.50;1.33;;;14.90;54.30;;;;;;4958846;28;20494;-83
2021/12/02 07:25:03;;;;;;;1.70;1.60;;;14.80;54.10;;;;;;4958899;28;20459;-83
2021/12/02 07:27:31;;;;;;;2.50;1.17;;;14.80;54.10;;;;;;4958921;28;22564;-82
2021/12/02 07:29:59;;;;;;;2.07;1.40;;;14.80;54.20;;;;;;4957683;29;20546;-83
2021/12/02 07:32:28;;;;;;;1.50;1.40;;;14.80;54.70;;;;;;4957858;28;20463;-84
2021/12/02 07:34:57;;;;;;;2.40;1.33;;;14.80;54.00;;;;;;4959112;29;20463;-83
2021/12/02 07:37:26;;;;;;;1.90;1.40;;;14.80;54.00;;;;;;4957871;28;20505;-83
2021/12/02 07:39:54;;;;;;;2.50;1.53;;;14.80;54.10;;;;;;4957893;28;20462;-83
2021/12/02 07:42:26;;;;;;;1.43;1.33;;;14.80;54.00;;;;;;4958002;28;20850;-83
2021/12/02 07:44:54;;;;;;;2.23;1.40;;;14.80;54.00;;;;;;4958377;28;20576;-83
2021/12/02 07:47:22;;;;;;;1.63;1.40;;;14.80;54.10;;;;;;4957622;28;20476;-83
2021/12/02 07:49:50;;;;;;;1.60;1.50;;;14.80;54.00;;;;;;4957472;29;20443;-83
2021/12/02 07:52:19;;;;;;;2.03;1.20;;;14.80;53.90;;;;;;4958779;28;20487;-82
2021/12/02 07:54:49;;;;;;;2.00;1.43;;;14.80;54.00;;;;;;4958827;28;20451;-83
2021/12/02 07:57:17;;;;;;;3.07;1.90;;;14.70;53.80;;;;;;4957964;29;20466;-83
2021/12/02 07:59:46;;;;;;;2.50;1.70;;;14.70;53.80;;;;;;4956893;29;21005;-83
2021/12/02 08:02:15;;;;;;;1.60;1.50;;;14.70;53.90;;;;;;4958620;28;20479;-82
2021/12/02 08:04:43;;;;;;;2.10;1.30;;;14.70;53.80;;;;;;4955081;28;20455;-82
2021/12/02 08:07:11;;;;;;;1.43;1.30;;;14.70;53.90;;;;;;4958478;29;20446;-83
2021/12/02 08:09:39;;;;;;;1.37;1.27;;;14.70;53.90;;;;;;4958160;29;20479;-83
2021/12/02 08:12:09;;;;;;;1.50;1.40;;;14.70;53.90;;;;;;4958448;28;20498;-83
2021/12/02 08:14:37;;;;;;;2.33;1.60;;;14.70;53.90;;;;;;4958347;28;20450;-83
2021/12/02 08:17:05;;;;;;;2.43;1.60;;;14.70;53.70;;;;;;4958323;28;20446;-83
2021/12/02 08:19:33;;;;;;;1.77;1.40;;;14.70;53.80;;;;;;4956823;28;20443;-83
2021/12/02 08:22:01;;;;;;;2.17;1.30;;;14.70;53.60;;;;;;4955147;28;20547;-84
2021/12/02 08:24:29;;;;;;;1.93;1.50;;;14.70;53.60;;;;;;4957371;29;20467;-84
2021/12/02 08:26:57;;;;;;;2.20;1.63;;;14.80;53.70;;;;;;4956386;28;20451;-83
2021/12/02 08:29:26;;;;;;;2.30;1.20;;;14.80;53.60;;;;;;4957050;28;20934;-83
2021/12/02 08:31:56;;;;;;;3.03;1.47;;;14.80;53.60;;;;;;4957783;28;20458;-83
2021/12/02 08:34:24;;;;;;;2.30;1.40;;;14.80;53.60;;;;;;4957354;28;20431;-83
2021/12/02 08:36:54;;;;;;;2.20;1.63;;;14.90;53.60;;;;;;4956621;28;20490;-83
2021/12/02 08:39:24;;;;;;;1.73;1.50;;;15.00;53.60;;;;;;4955380;28;20515;-83
2021/12/02 08:41:54;;;;;;;2.60;1.43;;;15.00;53.50;;;;;;4956208;28;20467;-83
2021/12/02 08:44:23;;;;;;;1.60;1.43;;;15.00;54.20;;;;;;4949391;28;20498;-83
2021/12/02 08:46:53;;;;;;;1.97;1.53;;;15.10;53.60;;;;;;4957082;29;20539;-83
2021/12/02 08:49:22;;;;;;;1.93;1.60;;;15.20;53.70;;;;;;4956722;29;20502;-83
2021/12/02 08:51:51;;;;;;;1.60;1.50;;;15.40;53.70;;;;;;4957544;28;20462;-83
2021/12/02 08:54:19;;;;;;;2.77;1.80;;;15.50;53.80;;;;;;4959373;28;20929;-83
2021/12/02 08:56:47;;;;;;;1.50;1.40;;;15.60;53.70;;;;;;4960601;28;20435;-83
2021/12/02 08:59:16;;;;;;;1.83;1.60;;;15.70;53.60;;;;;;4960709;29;20447;-83
2021/12/02 09:01:44;;;;;;;2.83;1.80;;;15.80;53.60;;;;;;4960009;28;20443;-83
2021/12/02 09:04:14;;;;;;;1.93;1.63;;;15.90;53.70;;;;;;4960073;28;20481;-83
2021/12/02 09:06:42;;;;;;;1.80;1.60;;;16.00;53.80;;;;;;4959204;28;20443;-83
2021/12/02 09:09:10;;;;;;;2.10;1.60;;;16.20;54.00;;;;;;4960203;29;20463;-83
2021/12/02 09:11:38;;;;;;;1.50;1.40;;;16.30;53.90;;;;;;4953720;28;20498;-83
2021/12/02 09:14:06;;;;;;;2.30;1.83;;;16.30;53.70;;;;;;4960125;28;20455;-83
2021/12/02 09:16:36;;;;;;;2.10;1.70;;;16.30;53.60;;;;;;4959868;28;20466;-83
2021/12/02 09:19:04;;;;;;;1.40;1.30;;;16.30;53.70;;;;;;4959348;28;20447;-83
2021/12/02 09:21:33;;;;;;;2.00;1.80;;;16.30;53.80;;;;;;4959672;28;20483;-83
2021/12/02 09:24:02;;;;;;;1.40;1.30;;;16.30;53.90;;;;;;4959854;29;20517;-83
2021/12/02 09:26:29;;;;;;;1.60;1.50;;;16.30;53.90;;;;;;4960172;28;20502;-83
2021/12/02 09:28:58;;;;;;;4.70;2.10;;;16.30;54.20;;;;;;4959076;28;20479;-83
2021/12/02 09:31:26;;;;;;;3.03;1.70;;;16.30;54.10;;;;;;4959678;29;20471;-83
2021/12/02 09:33:54;;;;;;;3.33;1.70;;;16.30;54.10;;;;;;4960456;28;20537;-83
2021/12/02 09:36:22;;;;;;;1.93;1.70;;;16.40;54.30;;;;;;4962956;28;20443;-83
2021/12/02 09:38:51;;;;;;;2.60;1.83;;;16.40;54.40;;;;;;4962887;28;20481;-84
2021/12/02 09:41:20;;;;;;;1.63;1.53;;;16.40;54.20;;;;;;4962541;28;20442;-83
2021/12/02 09:43:47;;;;;;;1.73;1.63;;;16.40;54.30;;;;;;4961768;28;20491;-83
2021/12/02 09:46:15;;;;;;;2.70;1.93;;;16.50;54.30;;;;;;4960491;28;20527;-81
2021/12/02 09:48:44;;;;;;;2.30;2.10;;;16.50;54.30;;;;;;4961750;28;20550;-81
2021/12/02 09:51:15;;;;;;;2.33;2.03;;;16.60;54.40;;;;;;4961445;28;20534;-80
2021/12/02 09:54:08;;;;;;;1.60;1.50;;;16.60;54.40;;;;;;4961141;28;20463;-81
2021/12/02 09:56:38;;;;;;;2.30;1.50;;;16.70;54.50;;;;;;4962122;28;20439;-81
2021/12/02 09:59:09;;;;;;;1.53;1.43;;;16.80;54.60;;;;;;4961646;29;20543;-83
2021/12/02 10:01:41;;;;;;;2.00;1.80;;;17.00;54.60;;;;;;4961402;28;20467;-80
2021/12/02 10:04:10;;;;;;;2.33;1.63;;;17.10;54.50;;;;;;4959405;28;20455;-81
2021/12/02 10:06:40;;;;;;;1.90;1.80;;;17.40;54.80;;;;;;4962202;28;20432;-83
2021/12/02 10:09:12;;;;;;;2.07;1.87;;;17.60;54.50;;;;;;4961674;28;20470;-80
2021/12/02 10:11:46;;;;;;;1.80;1.70;;;17.80;54.30;;;;;;4961201;29;20415;-81
2021/12/02 10:14:19;;;;;;;2.30;2.07;;;17.90;54.10;;;;;;4961305;28;20466;-81
2021/12/02 10:16:48;;;;;;;1.97;1.57;;;18.00;54.10;;;;;;4961714;28;20471;-82
2021/12/02 10:19:20;;;;;;;1.90;1.60;;;18.10;54.20;;;;;;4960732;28;20455;-81
2021/12/02 10:21:53;;;;;;;1.87;1.77;;;18.10;54.00;;;;;;4961270;28;20447;-81
2021/12/02 10:24:24;;;;;;;2.60;1.80;;;18.10;54.00;;;;;;4962291;29;20958;-81
2021/12/02 10:26:53;;;;;;;1.80;1.70;;;18.10;54.10;;;;;;4962579;28;20789;-81
2021/12/02 10:29:42;;;;;;;2.20;2.00;;;18.00;54.20;;;;;;4961776;28;20846;-81
2021/12/02 10:32:11;;;;;;;1.77;1.67;;;17.80;54.20;;;;;;4961518;28;20459;-81
2021/12/02 10:34:47;;;;;;;1.70;1.43;;;17.80;54.40;;;;;;4961573;28;20439;-82
2021/12/02 10:37:17;;;;;;;1.80;1.70;;;17.70;54.50;;;;;;4961115;28;20537;-81
2021/12/02 10:39:56;;;;;;;1.83;1.73;;;17.60;54.70;;;;;;4961886;28;20447;-81
2021/12/02 10:42:24;;;;;;;1.90;1.80;;;17.50;54.80;;;;;;4961913;28;20518;-82
2021/12/02 10:44:52;;;;;;;1.83;1.73;;;17.40;54.90;;;;;;4961553;28;20431;-81
2021/12/02 10:47:21;;;;;;;1.97;1.67;;;17.30;55.10;;;;;;4962299;28;20462;-81
2021/12/02 10:49:53;;;;;;;2.10;1.63;;;17.30;55.10;;;;;;4944996;29;20475;-81
2021/12/02 10:52:22;;;;;;;1.70;1.60;;;17.20;55.30;;;;;;4961977;28;20463;-81
2021/12/02 10:54:52;;;;;;;1.77;1.60;;;17.20;55.50;;;;;;4959231;28;20466;-81
2021/12/02 10:57:22;;;;;;;1.93;1.83;;;17.10;55.50;;;;;;4961822;28;20788;-81
2021/12/02 10:59:51;;;;;;;2.13;1.90;;;17.10;55.60;;;;;;4962399;28;20458;-81
2021/12/02 11:02:21;;;;;;;2.20;2.10;;;17.00;55.70;;;;;;4962743;28;20958;-81
2021/12/02 11:04:53;;;;;;;2.53;1.80;;;17.00;55.60;;;;;;4963098;28;20463;-81
2021/12/02 11:07:26;;;;;;;1.83;1.73;;;17.00;55.70;;;;;;4963156;28;20475;-82
2021/12/02 11:09:55;;;;;;;1.87;1.77;;;16.90;55.60;;;;;;4962826;28;20482;-81
2021/12/02 11:12:25;;;;;;;1.90;1.80;;;16.80;55.60;;;;;;4962698;28;20451;-83
2021/12/02 11:15:15;;;;;;;1.70;1.60;;;16.80;55.80;;;;;;4962104;28;20879;-82
2021/12/02 11:17:47;;;;;;;1.80;1.70;;;16.70;55.80;;;;;;4963067;28;20451;-82
2021/12/02 11:20:20;;;;;;;1.80;1.70;;;16.70;55.90;;;;;;4964697;29;20435;-82
2021/12/02 11:22:49;;;;;;;2.10;1.90;;;16.70;55.70;;;;;;4963615;28;20499;-82
2021/12/02 11:25:17;;;;;;;2.00;1.90;;;16.60;55.80;;;;;;4964546;29;20474;-82
2021/12/02 11:27:47;;;;;;;4.80;1.60;;;16.60;55.90;;;;;;4963612;28;20451;-82
2021/12/02 11:30:17;;;;;;;1.40;1.30;;;16.60;55.90;;;;;;4964227;28;20554;-82
2021/12/02 11:32:50;;;;;;;2.17;1.90;;;16.50;55.80;;;;;;4964226;28;20501;-82
2021/12/02 11:35:22;;;;;;;1.63;1.53;;;16.50;55.80;;;;;;4965160;28;20478;-82
2021/12/02 11:37:53;;;;;;;1.57;1.47;;;16.50;55.80;;;;;;4965123;28;20446;-82
2021/12/02 11:40:22;;;;;;;1.73;1.63;;;16.40;55.70;;;;;;4964806;29;20451;-82
2021/12/02 11:42:52;;;;;;;1.57;1.47;;;16.40;55.80;;;;;;4965163;28;20470;-82
2021/12/02 11:45:21;;;;;;;2.20;2.00;;;16.40;55.70;;;;;;4964575;28;20455;-82
2021/12/02 11:47:49;;;;;;;2.00;1.80;;;16.40;55.70;;;;;;4965038;28;20520;-82
2021/12/02 11:50:18;;;;;;;2.00;1.57;;;16.40;55.60;;;;;;4964885;28;20510;-82
2021/12/02 11:52:46;;;;;;;1.90;1.80;;;16.30;55.50;;;;;;4965166;28;20478;-82
2021/12/02 11:55:17;;;;;;;1.70;1.60;;;16.30;55.50;;;;;;4964999;28;20455;-83
2021/12/02 11:57:45;;;;;;;1.90;1.63;;;16.30;55.60;;;;;;4965335;28;20450;-82
2021/12/02 12:00:18;;;;;;;2.07;1.90;;;16.30;55.60;;;;;;4965082;28;20443;-82
2021/12/02 12:02:54;;;;;;;1.60;1.50;;;16.20;55.40;;;;;;4964974;28;20471;-81
2021/12/02 12:05:25;;;;;;;2.33;1.70;;;16.20;55.40;;;;;;4965091;29;20419;-81
2021/12/02 12:07:53;;;;;;;1.90;1.50;;;16.20;55.50;;;;;;4965007;28;20428;-81
2021/12/02 12:10:27;;;;;;;1.70;1.60;;;16.20;55.40;;;;;;4965084;28;20481;-84
2021/12/02 12:13:11;;;;;;;2.73;1.70;;;16.20;55.40;;;;;;4966023;28;20595;-81
2021/12/02 12:15:42;;;;;;;1.80;1.70;;;16.10;55.30;;;;;;4963660;28;20482;-82
2021/12/02 12:18:11;;;;;;;1.90;1.80;;;16.10;55.20;;;;;;4965060;28;20455;-82
2021/12/02 12:21:00;;;;;;;2.10;1.93;;;16.10;55.10;;;;;;4964756;28;20436;-82
2021/12/02 12:23:29;;;;;;;2.03;1.60;;;16.20;55.10;;;;;;4964654;28;20543;-82
2021/12/02 12:26:27;;;;;;;1.80;1.67;;;16.10;55.00;;;;;;4965464;28;20447;-81
2021/12/02 12:29:30;;;;;;;1.83;1.53;;;16.20;55.00;;;;;;4964032;28;20450;-81
2021/12/02 12:32:24;;;;;;;1.67;1.57;;;16.20;54.90;;;;;;4965463;28;20510;-82
2021/12/02 12:34:56;;;;;;;1.70;1.60;;;16.20;55.00;;;;;;4961525;28;20486;-82
2021/12/02 12:37:46;;;;;;;1.60;1.47;;;16.30;55.00;;;;;;4960907;28;20443;-81
2021/12/02 12:40:17;;;;;;;1.77;1.60;;;16.40;54.90;;;;;;4960940;28;20451;-81
2021/12/02 12:42:46;;;;;;;2.00;1.50;;;16.40;54.70;;;;;;4963872;28;20447;-82
2021/12/02 12:45:25;;;;;;;1.70;1.60;;;16.50;54.60;;;;;;4961429;28;20463;-81
2021/12/02 12:47:54;;;;;;;1.40;1.40;;;16.50;54.50;;;;;;4963671;29;20470;-81
2021/12/02 12:50:28;;;;;;;1.60;1.50;;;16.50;54.30;;;;;;4963053;28;20440;-81
2021/12/02 12:52:56;;;;;;;1.90;1.80;;;16.60;54.50;;;;;;4959623;28;20525;-81
2021/12/02 12:55:24;;;;;;;1.60;1.50;;;16.60;54.30;;;;;;4961922;28;20447;-82
2021/12/02 12:58:08;;;;;;;2.90;1.93;;;16.60;54.10;;;;;;4962235;28;20498;-81
2021/12/02 13:00:37;;;;;;;1.57;1.47;;;16.50;54.10;;;;;;4959621;29;20423;-81
2021/12/02 13:03:10;;;;;;;1.70;1.60;;;16.60;54.40;;;;;;4961716;29;20446;-81
2021/12/02 13:05:44;;;;;;;1.50;1.40;;;16.60;54.40;;;;;;4962339;28;20507;-81
2021/12/02 13:08:19;;;;;;;1.40;1.30;;;16.60;54.20;;;;;;4961903;28;20447;-82